Time;durP1;ratioP1;P1;durP2;ratioP2;P2;SDS_P1;SDS_P2;PMS_P1;PMS_P2;Temp;Humidity;BMP_temperature;BMP_pressure;BME280_temperature;BME280_humidity;BME280_pressure;Samples;Min_cycle;Max_cycle;Signal;HPM_P1;HPM_P2
2021/08/23 00:01:06;;;;;;;22.38;21.38;;;;;;;;;;5017410;28;20056;-83
2021/08/23 00:03:31;;;;;;;23.63;22.63;;;;;;;;;;5017366;28;20091;-83
2021/08/23 00:05:57;;;;;;;25.70;24.50;;;;;;;;;;5017041;28;20040;-83
2021/08/23 00:08:25;;;;;;;28.73;27.60;;;;;;;;;;5017007;28;20040;-83
2021/08/23 00:10:50;;;;;;;40.03;38.38;;;;;;;;;;5017581;28;20029;-83
2021/08/23 00:13:15;;;;;;;24.73;23.73;;;;;;;;;;5016573;28;20063;-83
2021/08/23 00:15:41;;;;;;;22.95;21.67;;;;;;;;;;5017301;28;20029;-84
2021/08/23 00:18:07;;;;;;;49.10;47.15;;;;;;;;;;5013888;28;20037;-83
2021/08/23 00:20:50;;;;;;;31.83;30.50;;;;;;;;;;5030197;28;20088;-83
2021/08/23 00:23:16;;;;;;;33.28;31.90;;;;;;;;;;5022085;28;20195;-83
2021/08/23 00:25:42;;;;;;;25.65;24.45;;;;;;;;;;5008042;28;20389;-83
2021/08/23 00:28:08;;;;;;;34.47;33.10;;;;;;;;;;5010776;28;20040;-83
2021/08/23 00:30:35;;;;;;;37.00;35.45;;;;;;;;;;5017857;28;20036;-83
2021/08/23 00:33:00;;;;;;;28.55;27.23;;;;;;;;;;5017309;28;20483;-83
2021/08/23 00:35:26;;;;;;;29.40;28.02;;;;;;;;;;5000146;28;20094;-83
2021/08/23 00:37:51;;;;;;;31.80;30.38;;;;;;;;;;5033421;28;20093;-82
2021/08/23 00:40:17;;;;;;;27.80;26.45;;;;;;;;;;5033813;28;20036;-83
2021/08/23 00:42:42;;;;;;;44.97;43.13;;;;;;;;;;5025673;28;20040;-82
2021/08/23 00:45:08;;;;;;;37.90;36.13;;;;;;;;;;5053463;28;20032;-83
2021/08/23 00:47:35;;;;;;;34.47;33.08;;;;;;;;;;5028690;28;20033;-82
2021/08/23 00:50:01;;;;;;;32.58;31.23;;;;;;;;;;4998924;28;20045;-84
2021/08/23 00:52:26;;;;;;;27.60;26.38;;;;;;;;;;5032320;28;20052;-82
2021/08/23 00:54:52;;;;;;;30.63;29.23;;;;;;;;;;5016802;28;20033;-84
2021/08/23 00:57:17;;;;;;;37.78;36.17;;;;;;;;;;5016583;28;20110;-83
2021/08/23 00:59:43;;;;;;;23.88;22.77;;;;;;;;;;5013371;28;20029;-83
2021/08/23 01:02:43;;;;;;;33.65;32.35;;;;;;;;;;4997437;28;20045;-83
2021/08/23 01:05:13;;;;;;;31.92;30.55;;;;;;;;;;4983406;28;20458;-83
2021/08/23 01:07:48;;;;;;;31.17;29.75;;;;;;;;;;4981014;28;20099;-83
2021/08/23 01:10:15;;;;;;;37.03;35.53;;;;;;;;;;4981890;28;20026;-83
2021/08/23 01:12:40;;;;;;;34.45;32.95;;;;;;;;;;4997262;28;20041;-83
2021/08/23 01:15:06;;;;;;;29.20;27.98;;;;;;;;;;4980959;28;20033;-83
2021/08/23 01:17:32;;;;;;;40.03;38.35;;;;;;;;;;5030783;28;20033;-83
2021/08/23 01:19:59;;;;;;;38.72;37.10;;;;;;;;;;5007114;28;20407;-83
2021/08/23 01:22:26;;;;;;;36.45;34.95;;;;;;;;;;5036227;28;20041;-83
2021/08/23 01:24:53;;;;;;;35.15;33.67;;;;;;;;;;5019707;28;20056;-83
2021/08/23 01:27:18;;;;;;;41.75;40.00;;;;;;;;;;5003120;28;20036;-83
2021/08/23 01:29:47;;;;;;;43.42;41.55;;;;;;;;;;5019977;28;20040;-82
2021/08/23 01:32:23;;;;;;;43.83;42.10;;;;;;;;;;5016225;28;20049;-83
2021/08/23 01:34:49;;;;;;;43.10;41.33;;;;;;;;;;5032764;28;20037;-83
2021/08/23 01:37:18;;;;;;;35.25;33.75;;;;;;;;;;5038555;28;20036;-83
2021/08/23 01:39:43;;;;;;;50.85;48.83;;;;;;;;;;5019868;28;20072;-83
2021/08/23 01:42:09;;;;;;;43.85;42.08;;;;;;;;;;5031801;28;20030;-83
2021/08/23 01:44:35;;;;;;;42.67;40.97;;;;;;;;;;5016378;28;20037;-83
2021/08/23 01:47:00;;;;;;;48.63;46.63;;;;;;;;;;5019538;28;20052;-83
2021/08/23 01:49:26;;;;;;;57.75;55.05;;;;;;;;;;5019115;28;20040;-83
2021/08/23 01:51:51;;;;;;;47.03;45.03;;;;;;;;;;5036143;28;20053;-83
2021/08/23 01:54:18;;;;;;;43.13;41.38;;;;;;;;;;5036127;28;20029;-83
2021/08/23 01:56:44;;;;;;;60.55;58.25;;;;;;;;;;5019313;28;20063;-83
2021/08/23 01:59:09;;;;;;;58.78;56.40;;;;;;;;;;5035350;28;20040;-82
2021/08/23 02:01:34;;;;;;;46.05;44.10;;;;;;;;;;5018546;28;20064;-83
2021/08/23 02:04:00;;;;;;;52.00;50.00;;;;;;;;;;5019044;28;20041;-83
2021/08/23 02:06:26;;;;;;;53.13;51.00;;;;;;;;;;5035762;28;20052;-83
2021/08/23 02:08:52;;;;;;;49.30;47.30;;;;;;;;;;5003138;28;20407;-83
2021/08/23 02:11:18;;;;;;;55.65;53.50;;;;;;;;;;5002938;28;20033;-84
2021/08/23 02:13:46;;;;;;;69.47;66.85;;;;;;;;;;5031707;28;20104;-83
2021/08/23 02:16:12;;;;;;;53.25;51.25;;;;;;;;;;4999272;28;20088;-83
2021/08/23 02:18:37;;;;;;;54.40;52.28;;;;;;;;;;5031996;28;20029;-83
2021/08/23 02:21:02;;;;;;;57.80;55.53;;;;;;;;;;4999034;28;20037;-83
2021/08/23 02:23:28;;;;;;;42.88;41.13;;;;;;;;;;5015507;28;20111;-83
2021/08/23 02:25:54;;;;;;;36.75;35.35;;;;;;;;;;5000137;28;20037;-82
2021/08/23 02:28:19;;;;;;;58.95;56.80;;;;;;;;;;5018885;28;20036;-83
2021/08/23 02:30:45;;;;;;;51.80;49.75;;;;;;;;;;5018732;28;20025;-83
2021/08/23 02:33:10;;;;;;;41.03;39.50;;;;;;;;;;5018031;28;20112;-83
2021/08/23 02:35:36;;;;;;;48.05;46.13;;;;;;;;;;5035141;28;20033;-83
2021/08/23 02:38:07;;;;;;;42.92;41.22;;;;;;;;;;5019176;28;20032;-83
2021/08/23 02:40:33;;;;;;;49.90;48.05;;;;;;;;;;5002531;28;20033;-83
2021/08/23 02:42:58;;;;;;;50.65;48.65;;;;;;;;;;5015030;28;20033;-83
2021/08/23 02:45:24;;;;;;;39.92;38.42;;;;;;;;;;4999054;28;20043;-83
2021/08/23 02:47:49;;;;;;;59.47;57.35;;;;;;;;;;5005149;28;20029;-83
2021/08/23 02:50:15;;;;;;;54.58;52.40;;;;;;;;;;5002110;28;20087;-83
2021/08/23 02:52:40;;;;;;;55.30;53.30;;;;;;;;;;5001795;28;20037;-83
2021/08/23 02:55:06;;;;;;;45.13;43.38;;;;;;;;;;5018216;28;20033;-83
2021/08/23 02:57:32;;;;;;;56.10;54.00;;;;;;;;;;5018417;28;20060;-83
2021/08/23 02:59:57;;;;;;;54.47;52.45;;;;;;;;;;5018089;28;20033;-83
2021/08/23 03:02:23;;;;;;;80.32;77.30;;;;;;;;;;5017992;28;20116;-83
2021/08/23 03:04:48;;;;;;;84.30;80.93;;;;;;;;;;5017990;28;20041;-83
2021/08/23 03:07:13;;;;;;;57.90;55.85;;;;;;;;;;5030510;28;20416;-83
2021/08/23 03:09:39;;;;;;;62.92;60.55;;;;;;;;;;5017791;28;20029;-83
2021/08/23 03:12:05;;;;;;;77.00;73.95;;;;;;;;;;5001075;28;20033;-83
2021/08/23 03:14:30;;;;;;;59.28;56.95;;;;;;;;;;5017234;28;20115;-83
2021/08/23 03:16:56;;;;;;;59.20;57.08;;;;;;;;;;5017437;28;20118;-83
2021/08/23 03:19:21;;;;;;;60.03;57.92;;;;;;;;;;5017885;28;20041;-83
2021/08/23 03:21:47;;;;;;;66.15;63.78;;;;;;;;;;5001478;28;20059;-83
2021/08/23 03:24:12;;;;;;;67.75;65.10;;;;;;;;;;5034383;28;20028;-83
2021/08/23 03:26:39;;;;;;;74.30;71.68;;;;;;;;;;5017245;28;20053;-83
2021/08/23 03:29:05;;;;;;;38.20;36.78;;;;;;;;;;5017870;28;20443;-83
2021/08/23 03:31:31;;;;;;;87.15;84.00;;;;;;;;;;5017530;28;20037;-83
2021/08/23 03:33:56;;;;;;;88.30;85.07;;;;;;;;;;5014128;28;20038;-83
2021/08/23 03:36:22;;;;;;;55.92;53.92;;;;;;;;;;5014595;28;20045;-83
2021/08/23 03:38:48;;;;;;;76.15;73.43;;;;;;;;;;5017391;28;20048;-83
2021/08/23 03:41:15;;;;;;;90.78;87.63;;;;;;;;;;5016831;28;20515;-83
2021/08/23 03:43:40;;;;;;;70.57;68.10;;;;;;;;;;5001167;28;20449;-83
2021/08/23 03:46:07;;;;;;;71.95;69.25;;;;;;;;;;5033722;28;20033;-83
2021/08/23 03:48:32;;;;;;;86.85;83.78;;;;;;;;;;5033657;28;20041;-83
2021/08/23 03:50:57;;;;;;;78.55;75.68;;;;;;;;;;5033524;28;20055;-83
2021/08/23 03:53:24;;;;;;;70.03;67.43;;;;;;;;;;5033793;28;20056;-83
2021/08/23 03:55:49;;;;;;;70.18;67.45;;;;;;;;;;5016977;28;20035;-83
2021/08/23 03:58:15;;;;;;;66.40;64.05;;;;;;;;;;5017175;28;20029;-83
2021/08/23 04:00:40;;;;;;;53.00;51.03;;;;;;;;;;5033967;28;20123;-83
2021/08/23 04:03:06;;;;;;;63.95;61.63;;;;;;;;;;5017337;28;20127;-83
2021/08/23 04:05:31;;;;;;;71.90;69.28;;;;;;;;;;5033359;28;20037;-82
2021/08/23 04:07:57;;;;;;;97.95;94.55;;;;;;;;;;5033501;28;20025;-82
2021/08/23 04:10:22;;;;;;;89.57;86.25;;;;;;;;;;5017505;28;20091;-83
2021/08/23 04:12:48;;;;;;;79.28;76.40;;;;;;;;;;5033548;28;20032;-82
2021/08/23 04:15:13;;;;;;;66.25;63.72;;;;;;;;;;5013530;28;20377;-82
2021/08/23 04:17:39;;;;;;;79.80;76.85;;;;;;;;;;5030250;28;20095;-83
2021/08/23 04:20:05;;;;;;;62.05;59.85;;;;;;;;;;5013634;28;20037;-83
2021/08/23 04:22:30;;;;;;;58.22;56.08;;;;;;;;;;5022701;28;20037;-83
2021/08/23 04:24:56;;;;;;;73.95;71.30;;;;;;;;;;5033063;28;20530;-83
2021/08/23 04:27:21;;;;;;;93.15;89.95;;;;;;;;;;5016846;28;20067;-83
2021/08/23 04:29:47;;;;;;;56.67;54.63;;;;;;;;;;5017196;28;20064;-83
2021/08/23 04:32:12;;;;;;;56.42;54.00;;;;;;;;;;5033672;28;20124;-82
2021/08/23 04:34:38;;;;;;;57.90;55.90;;;;;;;;;;5033098;28;20114;-83
2021/08/23 04:37:04;;;;;;;60.33;58.00;;;;;;;;;;5016922;28;20446;-83
2021/08/23 04:39:33;;;;;;;27.83;26.65;;;;;;;;;;5016705;28;20033;-83
2021/08/23 04:41:58;;;;;;;80.85;77.97;;;;;;;;;;5016905;28;20449;-82
2021/08/23 04:44:24;;;;;;;60.35;58.17;;;;;;;;;;5033349;28;20041;-83
2021/08/23 04:46:50;;;;;;;81.13;78.28;;;;;;;;;;5017039;28;20025;-83
2021/08/23 04:49:16;;;;;;;61.00;58.92;;;;;;;;;;5017122;28;20043;-82
2021/08/23 04:51:41;;;;;;;89.10;85.95;;;;;;;;;;5016958;28;20040;-83
2021/08/23 04:54:07;;;;;;;82.55;79.65;;;;;;;;;;5019685;28;20137;-82
2021/08/23 04:56:32;;;;;;;84.40;81.47;;;;;;;;;;5020918;28;20060;-85
2021/08/23 04:58:58;;;;;;;63.42;61.03;;;;;;;;;;5020448;28;20028;-85
2021/08/23 05:01:23;;;;;;;96.13;92.80;;;;;;;;;;5036992;28;20043;-84
2021/08/23 05:03:49;;;;;;;96.18;92.75;;;;;;;;;;5020463;28;20040;-84
2021/08/23 05:06:15;;;;;;;75.75;73.18;;;;;;;;;;5020250;28;20033;-85
2021/08/23 05:08:41;;;;;;;110.97;107.20;;;;;;;;;;5020670;28;20131;-85
2021/08/23 05:11:08;;;;;;;112.25;108.35;;;;;;;;;;5020564;28;20035;-84
2021/08/23 05:13:34;;;;;;;126.25;121.80;;;;;;;;;;5020362;28;20491;-84
2021/08/23 05:15:59;;;;;;;100.80;97.40;;;;;;;;;;5020326;28;20068;-85
2021/08/23 05:18:25;;;;;;;112.18;108.18;;;;;;;;;;5020309;28;20029;-84
2021/08/23 05:20:50;;;;;;;86.93;83.70;;;;;;;;;;5019865;28;20093;-85
2021/08/23 05:23:16;;;;;;;92.82;89.55;;;;;;;;;;5016479;28;20092;-84
2021/08/23 05:25:42;;;;;;;106.22;102.60;;;;;;;;;;4994299;28;20037;-84
2021/08/23 05:28:07;;;;;;;141.02;136.23;;;;;;;;;;5003667;28;20044;-86
2021/08/23 05:30:33;;;;;;;85.45;82.50;;;;;;;;;;5003667;28;20487;-85
2021/08/23 05:32:59;;;;;;;99.75;96.25;;;;;;;;;;5020197;28;20457;-85
2021/08/23 05:35:25;;;;;;;117.22;113.18;;;;;;;;;;5020106;28;20112;-85
2021/08/23 05:37:50;;;;;;;104.63;100.90;;;;;;;;;;5019852;28;20036;-85
2021/08/23 05:40:17;;;;;;;96.25;92.72;;;;;;;;;;5020961;28;20067;-88
2021/08/23 05:42:45;;;;;;;89.05;85.95;;;;;;;;;;5020402;28;20025;-88
2021/08/23 05:45:10;;;;;;;105.10;101.45;;;;;;;;;;5004661;28;20037;-88
2021/08/23 05:47:37;;;;;;;70.63;68.18;;;;;;;;;;5019634;28;20033;-87
2021/08/23 05:50:03;;;;;;;90.85;87.47;;;;;;;;;;5019813;28;20043;-88
2021/08/23 05:52:29;;;;;;;106.72;102.90;;;;;;;;;;5019395;28;20036;-87
2021/08/23 05:54:54;;;;;;;77.55;74.60;;;;;;;;;;5003347;28;20112;-87
2021/08/23 05:57:22;;;;;;;94.30;90.85;;;;;;;;;;5019809;28;20037;-87
2021/08/23 05:59:47;;;;;;;101.60;97.97;;;;;;;;;;5020644;28;20083;-86
2021/08/23 06:02:13;;;;;;;117.70;113.47;;;;;;;;;;5036549;28;20041;-86
2021/08/23 06:04:39;;;;;;;111.32;107.07;;;;;;;;;;5019349;28;20114;-85
2021/08/23 06:07:07;;;;;;;91.78;88.40;;;;;;;;;;5020010;28;20025;-87
2021/08/23 06:09:33;;;;;;;94.57;90.75;;;;;;;;;;5020331;28;20384;-87
2021/08/23 06:11:58;;;;;;;94.35;90.95;;;;;;;;;;5016308;28;20034;-86
2021/08/23 06:14:24;;;;;;;111.82;107.60;;;;;;;;;;4984434;28;20029;-87
2021/08/23 06:16:49;;;;;;;111.82;107.40;;;;;;;;;;5007836;28;20033;-87
2021/08/23 06:19:15;;;;;;;107.93;103.97;;;;;;;;;;4990495;28;20029;-87
2021/08/23 06:21:40;;;;;;;117.72;113.40;;;;;;;;;;5019732;28;20159;-87
2021/08/23 06:24:07;;;;;;;118.97;114.65;;;;;;;;;;5019778;28;20059;-87
2021/08/23 06:26:32;;;;;;;125.13;120.45;;;;;;;;;;5002714;28;20040;-86
2021/08/23 06:28:59;;;;;;;133.55;128.77;;;;;;;;;;5002866;28;20033;-85
2021/08/23 06:31:25;;;;;;;102.20;98.57;;;;;;;;;;5019193;28;20040;-84
2021/08/23 06:33:51;;;;;;;123.95;119.45;;;;;;;;;;5018817;28;20036;-83
2021/08/23 06:36:16;;;;;;;94.25;90.95;;;;;;;;;;5002004;28;20041;-84
2021/08/23 06:38:41;;;;;;;130.52;125.60;;;;;;;;;;5018610;28;20040;-84
2021/08/23 06:41:08;;;;;;;121.20;116.63;;;;;;;;;;5018068;28;20037;-84
2021/08/23 06:43:33;;;;;;;117.00;113.00;;;;;;;;;;5015227;28;20522;-85
2021/08/23 06:45:59;;;;;;;104.72;101.03;;;;;;;;;;4999026;28;20029;-85
2021/08/23 06:48:25;;;;;;;93.80;90.47;;;;;;;;;;4994258;28;20058;-87
2021/08/23 06:50:52;;;;;;;105.22;101.43;;;;;;;;;;5017906;28;20039;-85
2021/08/23 06:53:19;;;;;;;85.40;82.47;;;;;;;;;;5018951;28;20055;-86
2021/08/23 06:55:44;;;;;;;98.78;95.40;;;;;;;;;;5018363;28;20082;-86
2021/08/23 06:58:11;;;;;;;81.68;78.78;;;;;;;;;;5035135;28;20033;-85
2021/08/23 07:00:37;;;;;;;69.30;66.78;;;;;;;;;;5018730;28;20060;-86
2021/08/23 07:03:03;;;;;;;125.93;121.47;;;;;;;;;;5018520;28;20040;-85
2021/08/23 07:05:29;;;;;;;103.15;99.22;;;;;;;;;;5018335;28;20045;-85
2021/08/23 07:07:56;;;;;;;110.63;106.80;;;;;;;;;;5018633;28;20039;-86
2021/08/23 07:10:22;;;;;;;110.93;106.65;;;;;;;;;;5017542;28;20037;-85
2021/08/23 07:12:47;;;;;;;108.75;104.93;;;;;;;;;;5018193;28;20110;-86
2021/08/23 07:15:15;;;;;;;84.25;81.22;;;;;;;;;;5034066;28;20040;-86
2021/08/23 07:17:41;;;;;;;101.15;97.43;;;;;;;;;;5017462;28;20055;-86
2021/08/23 07:20:07;;;;;;;81.95;79.03;;;;;;;;;;5014792;28;20061;-87
2021/08/23 07:22:33;;;;;;;98.75;95.15;;;;;;;;;;5014225;28;20131;-86
2021/08/23 07:25:01;;;;;;;97.00;93.55;;;;;;;;;;5014422;28;20045;-89
2021/08/23 07:27:28;;;;;;;74.68;71.57;;;;;;;;;;4999817;28;20068;-86
2021/08/23 07:29:56;;;;;;;119.38;114.95;;;;;;;;;;5002786;28;20053;-85
2021/08/23 07:32:22;;;;;;;50.67;48.70;;;;;;;;;;5017331;28;20396;-83
2021/08/23 07:34:48;;;;;;;104.63;100.95;;;;;;;;;;5000571;28;20045;-83
2021/08/23 07:37:14;;;;;;;99.20;95.47;;;;;;;;;;5016901;28;20045;-83
2021/08/23 07:39:40;;;;;;;69.28;66.72;;;;;;;;;;5010828;28;20033;-82
2021/08/23 07:42:06;;;;;;;85.22;82.03;;;;;;;;;;5004520;28;20154;-84
2021/08/23 07:44:33;;;;;;;92.05;88.25;;;;;;;;;;5043463;28;20068;-83
2021/08/23 07:46:59;;;;;;;111.43;107.32;;;;;;;;;;5034118;28;20033;-84
2021/08/23 07:49:25;;;;;;;77.57;73.95;;;;;;;;;;5001763;28;20080;-85
2021/08/23 07:51:52;;;;;;;76.72;73.47;;;;;;;;;;5014615;28;20041;-84
2021/08/23 07:54:19;;;;;;;105.45;101.20;;;;;;;;;;5017501;28;20025;-83
2021/08/23 07:56:45;;;;;;;70.65;67.85;;;;;;;;;;5016736;28;20048;-84
2021/08/23 07:59:10;;;;;;;93.00;89.32;;;;;;;;;;5001018;28;20033;-83
2021/08/23 08:01:35;;;;;;;74.88;71.80;;;;;;;;;;5013708;28;20037;-83
2021/08/23 08:04:02;;;;;;;72.72;69.95;;;;;;;;;;4981294;28;20045;-83
2021/08/23 08:06:28;;;;;;;94.82;91.20;;;;;;;;;;5013869;28;20464;-84
2021/08/23 08:08:53;;;;;;;106.03;102.07;;;;;;;;;;4997595;28;20072;-83
2021/08/23 08:11:20;;;;;;;52.60;50.38;;;;;;;;;;5026764;28;20036;-83
2021/08/23 08:13:45;;;;;;;84.97;81.90;;;;;;;;;;5037433;28;20029;-84
2021/08/23 08:16:12;;;;;;;144.32;138.93;;;;;;;;;;5007235;28;20033;-83
2021/08/23 08:18:39;;;;;;;107.38;103.40;;;;;;;;;;5017628;28;20044;-84
2021/08/23 08:21:05;;;;;;;51.83;49.63;;;;;;;;;;5017216;28;20120;-83
2021/08/23 08:23:30;;;;;;;66.07;63.58;;;;;;;;;;5033244;28;20051;-83
2021/08/23 08:25:56;;;;;;;77.93;74.97;;;;;;;;;;5017038;28;20114;-83
2021/08/23 08:28:21;;;;;;;121.05;116.03;;;;;;;;;;5019956;28;20048;-83
2021/08/23 08:30:47;;;;;;;114.45;110.22;;;;;;;;;;5005164;28;20037;-83
2021/08/23 08:33:14;;;;;;;76.28;73.28;;;;;;;;;;5020577;28;20051;-83
2021/08/23 08:35:41;;;;;;;117.80;113.28;;;;;;;;;;5021290;28;20478;-84
2021/08/23 08:38:08;;;;;;;85.30;81.82;;;;;;;;;;5004817;28;20040;-83
2021/08/23 08:40:34;;;;;;;167.60;161.23;;;;;;;;;;5038049;28;20029;-83
2021/08/23 08:43:00;;;;;;;135.73;130.50;;;;;;;;;;5020737;28;20072;-84
2021/08/23 08:45:27;;;;;;;42.85;40.75;;;;;;;;;;5018099;28;20028;-83
2021/08/23 08:47:54;;;;;;;88.35;84.40;;;;;;;;;;5020640;28;20400;-84
2021/08/23 08:50:20;;;;;;;103.20;98.55;;;;;;;;;;5020277;28;20028;-84
2021/08/23 08:52:45;;;;;;;97.82;93.28;;;;;;;;;;5021015;28;20091;-84
2021/08/23 08:55:11;;;;;;;103.25;98.68;;;;;;;;;;5020315;28;20078;-84
2021/08/23 08:57:37;;;;;;;120.45;115.18;;;;;;;;;;5020702;28;20117;-84
2021/08/23 09:00:03;;;;;;;75.53;72.10;;;;;;;;;;5020818;28;20442;-84
2021/08/23 09:02:29;;;;;;;59.70;56.67;;;;;;;;;;5003829;28;20059;-84
2021/08/23 09:04:54;;;;;;;42.00;39.67;;;;;;;;;;5045959;28;20507;-84
2021/08/23 09:07:20;;;;;;;69.22;66.03;;;;;;;;;;5020175;28;20029;-85
2021/08/23 09:09:46;;;;;;;49.70;46.97;;;;;;;;;;5036729;28;20032;-84
2021/08/23 09:12:13;;;;;;;85.00;80.97;;;;;;;;;;5018834;28;20033;-84
2021/08/23 09:15:02;;;;;;;84.35;80.63;;;;;;;;;;5004141;28;20047;-84
2021/08/23 09:17:27;;;;;;;49.78;47.25;;;;;;;;;;5036441;28;20064;-84
2021/08/23 09:20:04;;;;;;;94.82;90.85;;;;;;;;;;5019749;28;20056;-84
2021/08/23 09:22:30;;;;;;;70.90;67.63;;;;;;;;;;5037374;28;20043;-85
2021/08/23 09:24:55;;;;;;;103.10;98.93;;;;;;;;;;5036905;28;20029;-86
2021/08/23 09:27:22;;;;;;;53.53;50.67;;;;;;;;;;5020065;28;20495;-86
2021/08/23 09:29:55;;;;;;;54.00;51.45;;;;;;;;;;5020481;28;20032;-85
2021/08/23 09:32:25;;;;;;;33.22;31.42;;;;;;;;;;5036878;28;20045;-85
2021/08/23 09:34:52;;;;;;;74.75;71.32;;;;;;;;;;5020183;28;20509;-84
2021/08/23 09:37:24;;;;;;;82.53;78.78;;;;;;;;;;5020077;28;20055;-84
2021/08/23 09:39:50;;;;;;;42.60;40.28;;;;;;;;;;5019044;28;20537;-84
2021/08/23 09:42:23;;;;;;;58.13;55.42;;;;;;;;;;5015876;28;20045;-84
2021/08/23 09:44:51;;;;;;;74.53;71.35;;;;;;;;;;5019916;28;20123;-84
2021/08/23 09:47:17;;;;;;;79.47;76.10;;;;;;;;;;5017070;28;20037;-84
2021/08/23 09:49:47;;;;;;;36.92;34.95;;;;;;;;;;4983312;28;20030;-83
2021/08/23 09:52:16;;;;;;;98.55;94.45;;;;;;;;;;4998735;28;20041;-84
2021/08/23 09:54:42;;;;;;;40.42;38.03;;;;;;;;;;5020064;28;20040;-84
2021/08/23 09:57:08;;;;;;;36.20;34.17;;;;;;;;;;5036132;28;20044;-85
2021/08/23 09:59:38;;;;;;;86.32;82.68;;;;;;;;;;5019482;28;20039;-85
2021/08/23 10:02:03;;;;;;;58.40;55.85;;;;;;;;;;5019360;28;20037;-84
2021/08/23 10:04:30;;;;;;;69.90;66.88;;;;;;;;;;5040619;28;20040;-84
2021/08/23 10:06:58;;;;;;;59.58;56.92;;;;;;;;;;5016317;28;20120;-85
2021/08/23 10:09:27;;;;;;;72.78;69.65;;;;;;;;;;5003457;28;20033;-84
2021/08/23 10:11:57;;;;;;;77.28;74.03;;;;;;;;;;5019736;28;20040;-85
2021/08/23 10:14:24;;;;;;;51.22;48.88;;;;;;;;;;5019244;28;20398;-85
2021/08/23 10:16:50;;;;;;;37.28;35.35;;;;;;;;;;5018857;28;20119;-85
2021/08/23 10:19:16;;;;;;;76.72;73.50;;;;;;;;;;5015463;28;20082;-84
2021/08/23 10:21:46;;;;;;;63.97;61.10;;;;;;;;;;4999122;28;20029;-84
2021/08/23 10:24:12;;;;;;;90.22;86.55;;;;;;;;;;4983130;28;20026;-84
2021/08/23 10:26:42;;;;;;;54.03;51.58;;;;;;;;;;4999239;28;20112;-84
2021/08/23 10:29:09;;;;;;;80.65;77.38;;;;;;;;;;4983165;28;20396;-84
2021/08/23 10:31:40;;;;;;;76.50;73.18;;;;;;;;;;4982848;28;20033;-85
2021/08/23 10:34:20;;;;;;;79.15;75.82;;;;;;;;;;4983892;28;20033;-84
2021/08/23 10:36:49;;;;;;;52.00;49.72;;;;;;;;;;5015997;28;20045;-86
2021/08/23 10:39:21;;;;;;;69.95;66.93;;;;;;;;;;4999792;28;20053;-86
2021/08/23 10:41:49;;;;;;;65.18;62.45;;;;;;;;;;4984672;28;20073;-83
2021/08/23 10:44:31;;;;;;;76.50;73.28;;;;;;;;;;5023293;28;20034;-83
2021/08/23 10:47:04;;;;;;;67.50;64.65;;;;;;;;;;4982252;28;20041;-83
2021/08/23 10:49:40;;;;;;;47.25;45.05;;;;;;;;;;5031628;28;20037;-83
2021/08/23 10:52:06;;;;;;;78.20;74.95;;;;;;;;;;5031550;28;20120;-84
2021/08/23 10:54:39;;;;;;;70.32;67.40;;;;;;;;;;4999693;28;20597;-82
2021/08/23 10:57:06;;;;;;;81.30;77.80;;;;;;;;;;5018119;28;20120;-82
2021/08/23 10:59:46;;;;;;;60.53;57.80;;;;;;;;;;5018388;28;20053;-83
2021/08/23 11:02:16;;;;;;;67.20;64.32;;;;;;;;;;5014883;28;20415;-82
2021/08/23 11:04:47;;;;;;;57.45;54.95;;;;;;;;;;5010510;28;20063;-82
2021/08/23 11:07:12;;;;;;;78.50;75.20;;;;;;;;;;5035534;28;20105;-81
2021/08/23 11:09:42;;;;;;;56.63;54.05;;;;;;;;;;5034140;28;20504;-83
2021/08/23 11:12:11;;;;;;;66.82;63.92;;;;;;;;;;5017069;28;20049;-83
2021/08/23 11:14:41;;;;;;;42.70;40.60;;;;;;;;;;5050163;28;20450;-83
2021/08/23 11:17:07;;;;;;;45.92;43.83;;;;;;;;;;5030404;28;20046;-83
2021/08/23 11:19:32;;;;;;;50.30;47.80;;;;;;;;;;4997887;28;20036;-82
2021/08/23 11:21:58;;;;;;;51.03;48.67;;;;;;;;;;5000123;28;20036;-83
2021/08/23 11:24:27;;;;;;;62.60;59.88;;;;;;;;;;5012881;28;20491;-82
2021/08/23 11:27:00;;;;;;;55.65;53.13;;;;;;;;;;4997356;28;20044;-83
2021/08/23 11:29:27;;;;;;;43.55;41.35;;;;;;;;;;4998374;28;20029;-82
2021/08/23 11:31:59;;;;;;;53.65;50.97;;;;;;;;;;5015636;28;20080;-83
2021/08/23 11:34:25;;;;;;;50.83;48.63;;;;;;;;;;5017447;28;20119;-83
2021/08/23 11:36:51;;;;;;;56.22;53.58;;;;;;;;;;5046884;28;20098;-82
2021/08/23 11:39:17;;;;;;;52.33;49.92;;;;;;;;;;4981828;28;20080;-84
2021/08/23 11:41:42;;;;;;;44.83;42.90;;;;;;;;;;4998331;28;20037;-82
2021/08/23 11:44:07;;;;;;;71.20;68.22;;;;;;;;;;5017361;28;20041;-81
2021/08/23 11:46:33;;;;;;;68.70;65.85;;;;;;;;;;5017499;28;20044;-82
2021/08/23 11:48:59;;;;;;;49.78;47.58;;;;;;;;;;5014183;28;20037;-81
2021/08/23 11:51:29;;;;;;;46.95;44.92;;;;;;;;;;4997680;28;20037;-81
2021/08/23 11:53:55;;;;;;;24.98;23.67;;;;;;;;;;5016218;28;20068;-82
2021/08/23 11:56:20;;;;;;;32.05;30.30;;;;;;;;;;5026182;28;20098;-81
2021/08/23 11:58:46;;;;;;;33.60;32.05;;;;;;;;;;5007666;28;20038;-81
2021/08/23 12:01:15;;;;;;;53.45;51.05;;;;;;;;;;5032308;28;20068;-81
2021/08/23 12:03:41;;;;;;;43.35;41.35;;;;;;;;;;5019276;28;20048;-81
2021/08/23 12:06:11;;;;;;;57.20;54.72;;;;;;;;;;5053431;28;20076;-81
2021/08/23 12:08:38;;;;;;;46.20;43.95;;;;;;;;;;5053435;28;20075;-82
2021/08/23 12:11:09;;;;;;;57.28;54.78;;;;;;;;;;5034181;28;20032;-81
2021/08/23 12:13:35;;;;;;;27.95;26.55;;;;;;;;;;5033157;28;20455;-81
2021/08/23 12:16:05;;;;;;;28.52;26.90;;;;;;;;;;5049915;28;20083;-81
2021/08/23 12:18:38;;;;;;;22.55;21.40;;;;;;;;;;5000594;28;20039;-80
2021/08/23 12:21:14;;;;;;;30.92;29.20;;;;;;;;;;5017143;28;20033;-81
2021/08/23 12:23:54;;;;;;;41.70;39.70;;;;;;;;;;5034047;28;20415;-81
2021/08/23 12:26:39;;;;;;;30.05;28.27;;;;;;;;;;5032979;28;20025;-80
2021/08/23 12:29:12;;;;;;;17.10;15.90;;;;;;;;;;5013747;28;20175;-81
2021/08/23 12:31:39;;;;;;;20.92;19.48;;;;;;;;;;5025919;28;20107;-80
2021/08/23 12:34:12;;;;;;;25.33;23.70;;;;;;;;;;5014027;28;20045;-81
2021/08/23 12:36:38;;;;;;;27.65;25.90;;;;;;;;;;5005250;28;20025;-80
2021/08/23 12:39:03;;;;;;;27.88;26.27;;;;;;;;;;5015076;28;20040;-81
2021/08/23 12:41:29;;;;;;;21.02;19.73;;;;;;;;;;5021157;28;20034;-80
2021/08/23 12:43:55;;;;;;;19.88;18.58;;;;;;;;;;5033670;28;20040;-80
2021/08/23 12:46:20;;;;;;;28.58;26.98;;;;;;;;;;5034940;28;20082;-80
2021/08/23 12:48:46;;;;;;;39.67;37.75;;;;;;;;;;5001947;28;20045;-80
2021/08/23 12:51:14;;;;;;;20.05;18.70;;;;;;;;;;4980811;28;20030;-80
2021/08/23 12:53:43;;;;;;;17.50;16.23;;;;;;;;;;5014270;28;20626;-80
2021/08/23 12:56:12;;;;;;;31.73;30.00;;;;;;;;;;4983204;28;20033;-80
2021/08/23 12:58:38;;;;;;;27.30;25.65;;;;;;;;;;5033617;28;20037;-81
2021/08/23 13:01:03;;;;;;;21.35;20.00;;;;;;;;;;5015582;28;20039;-80
2021/08/23 13:03:29;;;;;;;25.70;24.05;;;;;;;;;;5016080;28;20072;-80
2021/08/23 13:05:54;;;;;;;23.00;21.50;;;;;;;;;;5052790;28;20036;-80
2021/08/23 13:08:20;;;;;;;18.10;16.88;;;;;;;;;;5035681;28;20028;-79
2021/08/23 13:10:45;;;;;;;26.83;25.23;;;;;;;;;;5032282;28;20045;-79
2021/08/23 13:13:12;;;;;;;24.08;22.75;;;;;;;;;;5014520;28;20048;-79
2021/08/23 13:15:38;;;;;;;16.98;15.80;;;;;;;;;;5035379;28;20040;-80
2021/08/23 13:18:03;;;;;;;18.40;17.23;;;;;;;;;;5020262;28;20521;-80
2021/08/23 13:20:29;;;;;;;20.65;19.45;;;;;;;;;;5035950;28;20143;-79
2021/08/23 13:22:54;;;;;;;15.20;13.20;;;;;;;;;;5035958;28;20067;-80
2021/08/23 13:25:20;;;;;;;17.60;16.10;;;;;;;;;;5019196;28;20106;-80
2021/08/23 13:27:45;;;;;;;19.95;18.38;;;;;;;;;;5036285;28;20029;-80
2021/08/23 13:30:11;;;;;;;16.60;15.45;;;;;;;;;;5020214;28;20120;-81
2021/08/23 13:32:38;;;;;;;22.88;21.08;;;;;;;;;;5020036;28;20029;-82
2021/08/23 13:35:03;;;;;;;22.80;21.30;;;;;;;;;;5037030;28;20483;-83
2021/08/23 13:37:29;;;;;;;11.10;10.10;;;;;;;;;;5019297;28;20036;-82
2021/08/23 13:39:56;;;;;;;18.92;17.67;;;;;;;;;;5019256;28;20654;-83
2021/08/23 13:42:21;;;;;;;21.52;19.90;;;;;;;;;;5002683;28;20056;-82
2021/08/23 13:44:47;;;;;;;19.20;17.90;;;;;;;;;;5011557;28;20120;-84
2021/08/23 13:47:12;;;;;;;21.00;19.52;;;;;;;;;;4991372;28;20140;-81
2021/08/23 13:49:38;;;;;;;19.65;18.35;;;;;;;;;;5020377;28;20048;-81
2021/08/23 13:52:04;;;;;;;16.38;15.07;;;;;;;;;;5032754;28;20033;-81
2021/08/23 13:54:29;;;;;;;18.67;17.58;;;;;;;;;;5035997;28;20032;-81
2021/08/23 13:56:55;;;;;;;24.25;22.48;;;;;;;;;;5034867;28;20029;-81
2021/08/23 13:59:20;;;;;;;20.55;19.10;;;;;;;;;;5003022;28;20125;-81
2021/08/23 14:01:46;;;;;;;11.02;9.82;;;;;;;;;;5015764;28;20038;-81
2021/08/23 14:04:11;;;;;;;14.90;13.98;;;;;;;;;;5003085;28;20087;-81
2021/08/23 14:06:37;;;;;;;12.90;11.80;;;;;;;;;;4998881;28;20503;-81
2021/08/23 14:09:03;;;;;;;19.80;18.50;;;;;;;;;;5015510;28;20041;-81
2021/08/23 14:11:28;;;;;;;21.05;19.65;;;;;;;;;;5031896;28;20033;-80